Time;durP1;ratioP1;P1;durP2;ratioP2;P2;SDS_P1;SDS_P2;PMS_P1;PMS_P2;Temp;Humidity;BMP_temperature;BMP_pressure;BME280_temperature;BME280_humidity;BME280_pressure;Samples;Min_cycle;Max_cycle;Signal;HPM_P1;HPM_P2
2023/04/01 00:00:29;;;;;;;3.53;1.50;;;18.60;86.40;;;;;;5072823;28;20187;-66
2023/04/01 00:02:57;;;;;;;4.67;1.43;;;18.60;85.50;;;;;;5071234;28;20660;-65
2023/04/01 00:05:26;;;;;;;4.47;1.70;;;18.60;85.10;;;;;;5072131;28;20182;-66
2023/04/01 00:07:53;;;;;;;4.07;1.50;;;18.40;84.80;;;;;;5070874;28;20341;-65
2023/04/01 00:10:20;;;;;;;7.13;1.80;;;18.30;85.50;;;;;;5073035;28;20190;-62
2023/04/01 00:12:48;;;;;;;5.47;1.67;;;18.30;86.20;;;;;;5073154;28;20210;-65
2023/04/01 00:15:15;;;;;;;4.60;1.53;;;18.00;85.50;;;;;;5073406;28;20221;-72
2023/04/01 00:17:43;;;;;;;3.63;1.80;;;17.90;85.50;;;;;;5067155;28;20187;-68
2023/04/01 00:20:11;;;;;;;3.50;1.50;;;17.90;85.60;;;;;;5065010;28;20183;-63
2023/04/01 00:22:38;;;;;;;3.93;1.53;;;18.00;85.50;;;;;;5066131;28;20183;-73
2023/04/01 00:25:06;;;;;;;5.17;2.00;;;18.10;86.00;;;;;;5076048;28;20179;-66
2023/04/01 00:27:33;;;;;;;7.93;2.47;;;18.10;85.70;;;;;;5057814;28;20183;-68
2023/04/01 00:30:01;;;;;;;4.10;1.67;;;18.00;85.70;;;;;;5073023;28;20232;-67
2023/04/01 00:32:28;;;;;;;5.60;1.73;;;18.00;85.80;;;;;;5071920;28;20227;-66
2023/04/01 00:34:56;;;;;;;5.47;1.87;;;18.00;86.20;;;;;;5072936;28;20280;-68
2023/04/01 00:37:24;;;;;;;6.33;2.00;;;18.00;86.00;;;;;;5073644;28;20175;-66
2023/04/01 00:39:51;;;;;;;10.20;2.03;;;17.90;86.90;;;;;;5073309;28;20226;-65
2023/04/01 00:42:19;;;;;;;4.60;2.20;;;17.90;87.50;;;;;;5073214;28;20182;-68
2023/04/01 00:44:51;;;;;;;8.90;1.90;;;17.80;87.70;;;;;;5072757;28;20232;-69
2023/04/01 00:47:19;;;;;;;7.93;2.30;;;17.80;88.40;;;;;;5073100;28;20602;-66
2023/04/01 00:49:51;;;;;;;7.80;2.37;;;17.80;88.80;;;;;;5068314;28;20190;-66
2023/04/01 00:52:25;;;;;;;8.10;1.83;;;17.80;89.30;;;;;;5066379;28;20595;-67
2023/04/01 00:55:00;;;;;;;4.87;1.83;;;17.80;88.60;;;;;;5076528;28;20269;-69
2023/04/01 00:57:36;;;;;;;8.17;2.27;;;17.80;88.60;;;;;;5070089;28;20537;-69
2023/04/01 01:00:13;;;;;;;11.97;3.03;;;17.90;89.00;;;;;;5064150;28;20206;-68
2023/04/01 01:02:44;;;;;;;7.43;2.17;;;17.80;88.20;;;;;;5062056;28;20649;-66
2023/04/01 01:05:23;;;;;;;4.67;1.87;;;17.70;88.90;;;;;;5072390;28;20633;-66
2023/04/01 01:08:26;;;;;;;9.27;2.93;;;17.70;89.00;;;;;;5072145;28;20246;-64
2023/04/01 01:10:53;;;;;;;9.73;2.83;;;17.60;89.20;;;;;;5046544;28;20195;-63
2023/04/01 01:13:53;;;;;;;10.17;3.20;;;17.50;89.40;;;;;;5071440;28;20207;-64
2023/04/01 01:16:36;;;;;;;11.87;3.03;;;17.50;90.00;;;;;;5073011;28;20175;-63
2023/04/01 01:19:10;;;;;;;20.50;3.70;;;17.50;90.20;;;;;;5076378;28;20196;-65
2023/04/01 01:21:52;;;;;;;6.90;2.73;;;17.50;90.10;;;;;;5078217;28;20167;-66
2023/04/01 01:24:53;;;;;;;9.40;2.63;;;17.40;90.40;;;;;;5078492;28;20262;-68
2023/04/01 01:27:22;;;;;;;7.63;2.80;;;17.50;90.70;;;;;;5078960;28;20261;-68
2023/04/01 01:30:07;;;;;;;9.83;2.87;;;17.60;90.60;;;;;;5078641;28;20544;-73
2023/04/01 01:33:04;;;;;;;7.83;2.53;;;17.70;90.70;;;;;;5079026;28;20207;-70
2023/04/01 01:35:50;;;;;;;8.07;2.60;;;17.80;90.20;;;;;;5078561;28;20317;-72
2023/04/01 01:38:21;;;;;;;7.77;2.50;;;17.80;89.70;;;;;;5079128;28;20262;-68
2023/04/01 01:40:56;;;;;;;9.80;2.40;;;17.80;89.50;;;;;;5078882;28;20232;-65
2023/04/01 01:43:26;;;;;;;8.50;3.10;;;17.70;89.60;;;;;;5077943;28;20663;-68
2023/04/01 01:45:58;;;;;;;9.83;2.80;;;17.60;89.50;;;;;;5078866;28;20667;-68
2023/04/01 01:48:29;;;;;;;11.77;2.90;;;17.50;89.20;;;;;;5058817;28;20176;-68
2023/04/01 01:50:57;;;;;;;9.27;2.67;;;17.50;89.30;;;;;;5065824;28;20270;-63
2023/04/01 01:53:24;;;;;;;9.90;3.07;;;17.60;89.30;;;;;;5078805;28;20211;-68
2023/04/01 01:55:52;;;;;;;8.80;2.73;;;17.50;89.60;;;;;;5079045;28;20174;-63
2023/04/01 01:58:40;;;;;;;8.77;2.77;;;17.60;89.90;;;;;;5078665;28;20565;-64
2023/04/01 02:01:12;;;;;;;10.97;3.30;;;17.70;90.10;;;;;;5078940;28;20175;-64
2023/04/01 02:03:41;;;;;;;10.53;3.30;;;17.90;90.00;;;;;;5078533;28;20509;-66
2023/04/01 02:06:15;;;;;;;10.77;2.97;;;17.80;89.40;;;;;;5077339;28;20210;-65
2023/04/01 02:08:54;;;;;;;11.53;3.07;;;17.80;89.50;;;;;;5078525;28;20234;-71
2023/04/01 02:11:47;;;;;;;9.77;2.90;;;17.70;89.40;;;;;;5078621;28;20175;-71
2023/04/01 02:14:42;;;;;;;12.63;2.93;;;17.80;89.80;;;;;;5074339;28;20302;-70
2023/04/01 02:17:14;;;;;;;11.33;3.47;;;17.80;89.70;;;;;;5078759;28;20175;-69
2023/04/01 02:20:08;;;;;;;12.03;3.10;;;17.90;89.90;;;;;;5078374;28;20203;-64
2023/04/01 02:22:44;;;;;;;14.73;3.03;;;18.00;89.60;;;;;;5078559;28;20578;-63
2023/04/01 02:25:23;;;;;;;12.13;2.43;;;17.90;88.80;;;;;;5078479;28;20182;-69
2023/04/01 02:27:50;;;;;;;19.50;3.50;;;17.80;89.00;;;;;;5074250;28;20183;-63
2023/04/01 02:30:18;;;;;;;8.40;2.10;;;17.60;89.40;;;;;;5075369;28;20175;-64
2023/04/01 02:32:47;;;;;;;11.70;3.43;;;17.50;89.40;;;;;;5075216;28;20195;-65
2023/04/01 02:35:16;;;;;;;10.50;3.00;;;17.60;90.20;;;;;;5075065;28;20191;-64
2023/04/01 02:37:48;;;;;;;11.03;2.60;;;17.60;89.80;;;;;;5074951;28;20167;-64
2023/04/01 02:40:17;;;;;;;9.67;2.77;;;17.30;89.90;;;;;;5075086;28;20198;-66
2023/04/01 02:42:45;;;;;;;13.37;3.40;;;17.30;90.00;;;;;;5074974;28;20183;-63
2023/04/01 02:45:14;;;;;;;12.80;3.33;;;17.20;90.40;;;;;;5074928;28;20233;-64
2023/04/01 02:47:41;;;;;;;9.83;3.10;;;17.20;90.60;;;;;;5074655;28;20200;-64
2023/04/01 02:50:10;;;;;;;7.87;3.77;;;17.10;90.60;;;;;;5070269;28;20179;-64
2023/04/01 02:52:37;;;;;;;15.30;3.40;;;17.30;91.10;;;;;;5074636;28;20218;-64
2023/04/01 02:55:06;;;;;;;14.97;3.40;;;17.30;91.00;;;;;;5073560;28;20167;-72
2023/04/01 02:57:33;;;;;;;10.90;3.30;;;17.40;90.90;;;;;;5074179;28;20179;-67
2023/04/01 03:00:00;;;;;;;13.00;3.53;;;17.30;90.80;;;;;;5072946;28;20190;-73
2023/04/01 03:02:28;;;;;;;13.93;3.50;;;17.40;90.50;;;;;;5074663;28;20274;-69
2023/04/01 03:04:55;;;;;;;13.23;2.70;;;17.40;90.40;;;;;;5074646;28;20214;-67
2023/04/01 03:07:22;;;;;;;11.63;2.90;;;17.50;90.90;;;;;;5074610;28;20171;-71
2023/04/01 03:09:50;;;;;;;15.23;3.30;;;17.50;90.40;;;;;;5074427;28;20214;-71
2023/04/01 03:12:17;;;;;;;13.90;3.37;;;17.40;90.10;;;;;;5074418;28;20587;-71
2023/04/01 03:14:45;;;;;;;14.70;3.73;;;17.40;90.00;;;;;;5074126;28;20187;-69
2023/04/01 03:17:12;;;;;;;16.93;3.03;;;17.50;89.80;;;;;;5074413;28;20393;-71
2023/04/01 03:19:39;;;;;;;11.60;2.90;;;17.50;89.70;;;;;;5074407;28;20171;-71
2023/04/01 03:22:08;;;;;;;13.43;3.47;;;17.70;89.50;;;;;;5067561;28;20626;-68
2023/04/01 03:24:35;;;;;;;11.73;2.60;;;17.70;89.20;;;;;;5080033;28;20553;-73
2023/04/01 03:27:03;;;;;;;9.77;2.40;;;17.70;88.20;;;;;;5071715;28;20180;-71
2023/04/01 03:29:30;;;;;;;8.97;2.57;;;17.90;88.70;;;;;;5068164;28;20660;-69
2023/04/01 03:31:58;;;;;;;7.27;2.00;;;18.00;88.80;;;;;;5064281;28;20181;-68
2023/04/01 03:34:26;;;;;;;11.70;2.83;;;17.80;88.00;;;;;;5068921;28;20339;-76
2023/04/01 03:36:54;;;;;;;12.23;2.70;;;17.30;88.20;;;;;;5076383;28;20191;-68
2023/04/01 03:39:21;;;;;;;7.90;2.80;;;17.30;88.90;;;;;;5070118;28;20187;-65
2023/04/01 03:41:49;;;;;;;12.13;2.77;;;17.20;89.10;;;;;;5066853;28;20207;-64
2023/04/01 03:44:16;;;;;;;8.97;2.93;;;17.10;89.50;;;;;;5068085;28;20221;-63
2023/04/01 03:46:44;;;;;;;12.23;3.30;;;17.10;89.60;;;;;;5073312;28;20669;-65
2023/04/01 03:49:12;;;;;;;14.50;3.43;;;17.20;89.90;;;;;;5072451;28;20206;-64
2023/04/01 03:51:43;;;;;;;18.43;3.83;;;17.50;89.80;;;;;;5072229;28;20190;-64
2023/04/01 03:54:11;;;;;;;13.30;2.63;;;17.70;89.70;;;;;;5073277;28;20284;-63
2023/04/01 03:56:39;;;;;;;9.83;2.50;;;17.70;89.10;;;;;;5073295;28;20588;-64
2023/04/01 03:59:08;;;;;;;10.70;3.37;;;17.70;88.70;;;;;;5072469;28;20776;-67
2023/04/01 04:01:36;;;;;;;6.53;2.60;;;17.60;88.10;;;;;;5073424;28;20211;-65
2023/04/01 04:04:04;;;;;;;15.30;4.00;;;17.60;88.20;;;;;;5076179;28;20183;-65
2023/04/01 04:06:33;;;;;;;9.70;2.90;;;17.80;88.50;;;;;;5071971;28;20616;-64
2023/04/01 04:09:00;;;;;;;10.53;2.77;;;17.80;87.20;;;;;;5069121;28;20266;-64
2023/04/01 04:11:27;;;;;;;7.03;2.17;;;17.80;86.30;;;;;;5078680;28;20179;-64
2023/04/01 04:13:55;;;;;;;9.80;2.87;;;17.90;85.80;;;;;;5074547;28;20654;-64
2023/04/01 04:16:22;;;;;;;9.00;2.67;;;18.20;86.20;;;;;;5071611;28;20190;-65
2023/04/01 04:18:50;;;;;;;8.10;2.70;;;18.20;86.00;;;;;;5082185;28;20190;-66
2023/04/01 04:21:18;;;;;;;6.87;2.70;;;18.00;85.40;;;;;;5077088;28;20231;-64
2023/04/01 04:23:45;;;;;;;6.93;2.10;;;18.00;86.30;;;;;;5071860;28;20237;-63
2023/04/01 04:26:15;;;;;;;7.40;2.27;;;17.70;85.60;;;;;;5076432;28;20645;-65
2023/04/01 04:28:42;;;;;;;10.53;2.53;;;17.40;86.00;;;;;;5071972;28;20305;-67
2023/04/01 04:31:09;;;;;;;8.83;2.43;;;17.40;86.40;;;;;;5072085;28;20175;-67
2023/04/01 04:33:37;;;;;;;11.67;2.70;;;17.30;86.20;;;;;;5072479;28;20214;-66
2023/04/01 04:36:05;;;;;;;9.80;2.50;;;17.40;86.40;;;;;;5072413;28;20187;-68
2023/04/01 04:38:32;;;;;;;8.87;2.63;;;17.40;86.40;;;;;;5072812;28;20179;-68
2023/04/01 04:41:00;;;;;;;11.83;2.70;;;17.50;86.30;;;;;;5074461;28;20179;-68
2023/04/01 04:43:28;;;;;;;13.50;3.03;;;17.70;86.40;;;;;;5072925;28;20187;-66
2023/04/01 04:45:55;;;;;;;10.03;2.57;;;17.60;86.20;;;;;;5074100;28;20233;-66
2023/04/01 04:48:22;;;;;;;11.63;2.60;;;17.50;85.90;;;;;;5082446;28;20186;-67
2023/04/01 04:50:51;;;;;;;9.97;3.03;;;17.50;85.80;;;;;;5073482;28;20236;-64
2023/04/01 04:53:19;;;;;;;8.50;2.47;;;17.40;86.00;;;;;;5078520;28;20211;-66
2023/04/01 04:55:50;;;;;;;9.83;2.43;;;17.50;85.80;;;;;;5069195;28;20545;-65
2023/04/01 04:58:18;;;;;;;10.00;2.47;;;17.50;85.30;;;;;;5079499;28;20183;-67
2023/04/01 05:00:46;;;;;;;13.57;3.33;;;17.60;85.50;;;;;;5077440;28;20602;-67
2023/04/01 05:03:14;;;;;;;7.73;2.40;;;17.60;85.20;;;;;;5072390;28;20193;-67
2023/04/01 05:05:50;;;;;;;8.97;2.80;;;17.60;84.60;;;;;;5072265;28;20649;-65
2023/04/01 05:08:18;;;;;;;7.63;2.40;;;17.70;84.50;;;;;;5081911;28;20229;-65
2023/04/01 05:10:45;;;;;;;5.30;2.10;;;17.70;83.20;;;;;;5081838;28;20600;-64
2023/04/01 05:13:13;;;;;;;8.93;2.10;;;17.80;82.40;;;;;;5072472;28;20282;-66
2023/04/01 05:15:43;;;;;;;9.07;2.50;;;17.90;81.90;;;;;;5072143;28;20660;-67
2023/04/01 05:18:10;;;;;;;6.57;1.80;;;18.00;81.20;;;;;;5080344;28;20276;-64
2023/04/01 05:20:37;;;;;;;8.07;1.90;;;18.20;80.30;;;;;;5077948;28;20190;-66
2023/04/01 05:23:05;;;;;;;7.47;2.20;;;18.50;79.20;;;;;;5060401;28;20171;-65
2023/04/01 05:25:32;;;;;;;8.40;1.87;;;18.80;78.10;;;;;;5062779;28;20269;-66
2023/04/01 05:27:59;;;;;;;5.43;2.07;;;18.90;76.00;;;;;;5075268;28;20213;-64
2023/04/01 05:30:27;;;;;;;6.53;1.87;;;19.20;76.10;;;;;;5080051;28;20195;-66
2023/04/01 05:32:54;;;;;;;7.20;1.70;;;19.30;75.30;;;;;;5072206;28;20265;-66
2023/04/01 05:35:21;;;;;;;6.97;1.77;;;19.40;74.00;;;;;;5073124;28;20175;-70
2023/04/01 05:37:49;;;;;;;10.30;2.00;;;19.70;71.80;;;;;;5080786;28;20527;-67
2023/04/01 05:40:16;;;;;;;6.33;2.07;;;21.20;68.80;;;;;;5070990;28;20190;-66
2023/04/01 05:42:43;;;;;;;8.97;1.50;;;21.90;67.10;;;;;;5070251;28;20187;-67
2023/04/01 05:45:11;;;;;;;5.03;1.63;;;22.00;63.20;;;;;;5072245;28;20252;-66
2023/04/01 05:47:38;;;;;;;8.50;1.30;;;21.80;62.00;;;;;;5071347;28;20194;-66
2023/04/01 05:50:06;;;;;;;8.83;1.90;;;21.20;61.30;;;;;;5082034;28;20184;-64
2023/04/01 05:52:33;;;;;;;7.70;1.63;;;21.00;63.50;;;;;;5073028;28;20214;-65
2023/04/01 05:55:00;;;;;;;5.83;1.40;;;20.60;63.40;;;;;;5071893;28;20187;-65
2023/04/01 05:57:28;;;;;;;5.07;1.63;;;20.50;65.30;;;;;;5078021;28;20186;-66
2023/04/01 05:59:55;;;;;;;7.37;1.43;;;20.50;65.00;;;;;;5082326;28;20233;-68
2023/04/01 06:02:23;;;;;;;5.77;1.43;;;20.30;65.60;;;;;;5073884;28;20171;-66
2023/04/01 06:04:54;;;;;;;6.77;1.50;;;20.10;66.40;;;;;;5073085;28;20270;-63
2023/04/01 06:07:21;;;;;;;9.90;1.63;;;20.30;66.10;;;;;;5089863;28;20525;-70
2023/04/01 06:09:49;;;;;;;6.40;1.50;;;20.30;65.50;;;;;;5080044;28;20191;-65
2023/04/01 06:12:37;;;;;;;6.60;1.80;;;20.00;64.70;;;;;;5075656;28;20214;-69
2023/04/01 06:15:34;;;;;;;6.00;1.40;;;19.80;64.80;;;;;;5082688;28;20271;-69
2023/04/01 06:18:42;;;;;;;10.17;2.40;;;19.60;65.50;;;;;;5077398;28;20268;-65
2023/04/01 06:21:30;;;;;;;6.73;1.90;;;19.50;66.40;;;;;;5075140;28;20179;-63
2023/04/01 06:24:15;;;;;;;7.83;2.27;;;19.40;65.90;;;;;;5081935;28;20266;-64
2023/04/01 06:27:00;;;;;;;7.70;2.23;;;19.40;65.80;;;;;;5075404;28;20179;-67
2023/04/01 06:29:36;;;;;;;8.47;1.93;;;19.40;65.60;;;;;;5071407;28;20179;-68
2023/04/01 06:32:31;;;;;;;5.73;1.50;;;19.30;65.40;;;;;;5075451;28;20183;-67
2023/04/01 06:35:13;;;;;;;11.60;1.97;;;19.30;65.60;;;;;;5069226;28;20601;-67
2023/04/01 06:37:58;;;;;;;8.57;1.87;;;19.30;65.80;;;;;;5072623;28;20264;-68
2023/04/01 06:40:50;;;;;;;13.70;2.03;;;19.30;65.80;;;;;;5075145;28;20221;-66
2023/04/01 06:43:35;;;;;;;8.97;2.30;;;19.30;65.20;;;;;;5073094;28;20180;-64
2023/04/01 06:46:16;;;;;;;7.20;2.13;;;19.50;65.40;;;;;;5062591;28;20176;-71
2023/04/01 06:49:15;;;;;;;10.77;1.63;;;19.60;65.90;;;;;;5082337;28;20183;-66
2023/04/01 06:51:45;;;;;;;8.23;1.60;;;19.90;64.80;;;;;;5061039;28;20179;-65
2023/04/01 06:54:42;;;;;;;5.57;1.90;;;20.70;61.90;;;;;;5086959;28;20268;-66
2023/04/01 06:57:31;;;;;;;8.20;1.83;;;21.30;59.10;;;;;;5073074;28;20183;-64
2023/04/01 07:00:00;;;;;;;3.63;1.57;;;20.70;60.20;;;;;;5081854;28;20183;-65
2023/04/01 07:02:30;;;;;;;8.93;1.77;;;20.40;61.30;;;;;;5070524;28;20233;-64
2023/04/01 07:04:59;;;;;;;4.00;1.47;;;20.30;61.40;;;;;;5072150;28;20716;-65
2023/04/01 07:08:09;;;;;;;8.43;1.80;;;20.20;62.10;;;;;;5063058;28;20191;-64
2023/04/01 07:10:42;;;;;;;3.53;1.73;;;20.00;62.70;;;;;;5040000;28;20651;-65
2023/04/01 07:13:39;;;;;;;5.40;1.70;;;19.90;62.80;;;;;;5030365;28;20224;-67
2023/04/01 07:16:27;;;;;;;7.50;2.17;;;19.70;62.80;;;;;;5047793;28;20183;-65
2023/04/01 07:18:57;;;;;;;4.43;1.37;;;19.60;63.10;;;;;;5070645;28;20183;-64
2023/04/01 07:21:47;;;;;;;6.10;1.70;;;19.50;63.40;;;;;;5073452;28;20183;-65
2023/04/01 07:24:48;;;;;;;5.93;1.90;;;19.30;63.20;;;;;;5070079;28;20202;-65
2023/04/01 07:27:16;;;;;;;6.73;1.70;;;19.30;63.10;;;;;;5073443;28;20551;-65
2023/04/01 07:29:43;;;;;;;7.30;1.70;;;19.20;62.70;;;;;;5072576;28;20258;-64
2023/04/01 07:32:30;;;;;;;9.00;1.97;;;19.20;63.10;;;;;;5073657;28;20187;-67
2023/04/01 07:35:12;;;;;;;4.50;1.57;;;19.10;64.10;;;;;;5072639;28;20183;-65
2023/04/01 07:38:06;;;;;;;8.13;1.77;;;19.10;63.80;;;;;;5071646;28;20183;-66
2023/04/01 07:40:51;;;;;;;4.80;1.60;;;19.10;64.30;;;;;;5071517;28;20175;-68
2023/04/01 07:43:51;;;;;;;4.70;1.60;;;19.00;64.40;;;;;;5076090;28;20195;-64
2023/04/01 07:46:30;;;;;;;10.83;2.83;;;18.90;65.20;;;;;;5057236;28;20533;-66
2023/04/01 07:49:16;;;;;;;8.27;2.13;;;18.90;64.70;;;;;;5071912;28;20179;-68
2023/04/01 07:52:05;;;;;;;5.00;1.60;;;18.90;65.10;;;;;;5072833;28;20315;-64
2023/04/01 07:55:03;;;;;;;5.50;1.60;;;18.90;65.80;;;;;;5073228;28;20219;-65
2023/04/01 07:57:46;;;;;;;9.27;2.23;;;18.80;65.40;;;;;;5073182;28;20183;-66
2023/04/01 08:00:19;;;;;;;11.10;2.17;;;18.80;65.90;;;;;;5073779;28;20183;-64
2023/04/01 08:03:08;;;;;;;10.60;2.20;;;18.80;66.30;;;;;;5073478;28;20187;-68
2023/04/01 08:05:46;;;;;;;6.43;1.80;;;18.80;66.80;;;;;;5071085;28;20681;-67
2023/04/01 08:08:17;;;;;;;6.23;1.50;;;18.80;66.10;;;;;;5054870;28;20234;-66
2023/04/01 08:11:22;;;;;;;7.93;1.80;;;18.80;65.90;;;;;;5073225;28;20203;-66
2023/04/01 08:14:04;;;;;;;3.77;1.60;;;18.80;66.30;;;;;;5073219;28;20230;-65
2023/04/01 08:16:52;;;;;;;8.17;2.10;;;18.80;66.70;;;;;;5072552;28;20198;-66
2023/04/01 08:19:51;;;;;;;7.27;1.90;;;18.80;66.70;;;;;;5071234;28;20182;-66
2023/04/01 08:22:31;;;;;;;7.20;1.87;;;18.80;66.80;;;;;;5062725;28;20175;-68
2023/04/01 08:25:02;;;;;;;8.83;2.20;;;18.80;66.40;;;;;;5072430;28;20213;-67
2023/04/01 08:27:39;;;;;;;9.80;2.33;;;18.80;65.90;;;;;;5072443;28;20589;-65
2023/04/01 08:30:24;;;;;;;8.77;2.57;;;18.70;66.10;;;;;;5071785;28;20244;-68
2023/04/01 08:32:58;;;;;;;8.97;1.97;;;18.70;65.40;;;;;;5077531;28;20207;-65
2023/04/01 08:35:41;;;;;;;9.40;2.60;;;18.80;65.60;;;;;;5066224;28;20282;-65
2023/04/01 08:38:17;;;;;;;10.20;2.50;;;18.80;65.60;;;;;;5073691;28;20513;-70
2023/04/01 08:41:21;;;;;;;4.37;1.60;;;18.80;65.50;;;;;;5076823;28;20220;-65
2023/04/01 08:43:59;;;;;;;7.07;1.90;;;18.70;65.60;;;;;;5071852;28;20240;-66
2023/04/01 08:46:51;;;;;;;7.87;2.37;;;18.80;66.10;;;;;;5071425;28;20258;-66
2023/04/01 08:49:33;;;;;;;8.57;2.13;;;18.70;65.90;;;;;;5069749;28;20167;-66
2023/04/01 08:52:13;;;;;;;8.60;2.17;;;18.70;66.20;;;;;;5064384;28;20237;-65
2023/04/01 08:55:23;;;;;;;7.33;2.90;;;18.70;66.80;;;;;;5068769;28;20275;-65
2023/04/01 08:58:26;;;;;;;8.00;2.20;;;18.70;67.10;;;;;;5072520;28;20191;-66
2023/04/01 09:01:03;;;;;;;11.20;2.80;;;18.60;67.60;;;;;;5081495;28;20183;-64
2023/04/01 09:03:56;;;;;;;10.07;2.83;;;18.70;67.90;;;;;;5072402;28;20183;-71
2023/04/01 09:06:56;;;;;;;12.30;2.50;;;18.60;67.90;;;;;;5072788;28;20182;-65
2023/04/01 09:09:44;;;;;;;6.07;1.90;;;18.60;68.20;;;;;;5092725;28;20223;-64
2023/04/01 09:12:31;;;;;;;7.90;2.03;;;18.60;68.40;;;;;;5060259;28;20584;-65
2023/04/01 09:15:25;;;;;;;8.27;2.17;;;18.60;68.50;;;;;;5072562;28;20212;-64
2023/04/01 09:18:13;;;;;;;8.83;1.60;;;18.50;68.30;;;;;;5075333;28;20218;-67
2023/04/01 09:20:58;;;;;;;9.00;1.70;;;18.50;68.60;;;;;;5071912;28;20302;-65
2023/04/01 09:23:54;;;;;;;8.23;1.87;;;18.50;68.90;;;;;;5065306;28;20196;-65
2023/04/01 09:26:35;;;;;;;8.60;2.57;;;18.40;69.10;;;;;;5069698;28;20191;-66
2023/04/01 09:29:11;;;;;;;10.00;2.00;;;18.30;69.20;;;;;;5076474;28;20183;-66
2023/04/01 09:31:50;;;;;;;12.00;2.40;;;18.40;69.40;;;;;;5072294;28;20552;-65
2023/04/01 09:34:43;;;;;;;5.40;2.20;;;18.30;69.40;;;;;;5069432;28;20571;-66
2023/04/01 09:37:26;;;;;;;6.97;2.10;;;18.30;69.20;;;;;;5063941;28;20198;-65
2023/04/01 09:40:10;;;;;;;9.60;2.30;;;18.30;69.80;;;;;;5075015;28;20194;-65
2023/04/01 09:42:43;;;;;;;8.33;2.60;;;18.30;69.80;;;;;;5075231;28;20194;-66
2023/04/01 09:45:26;;;;;;;6.27;2.10;;;18.30;69.50;;;;;;5073363;28;20194;-65
2023/04/01 09:48:20;;;;;;;4.70;1.87;;;18.30;69.20;;;;;;5069619;28;20191;-68
2023/04/01 09:51:21;;;;;;;7.60;1.70;;;18.30;69.50;;;;;;5076381;28;20186;-64
2023/04/01 09:54:05;;;;;;;8.33;1.97;;;18.30;69.40;;;;;;5075604;28;20298;-65
2023/04/01 09:57:03;;;;;;;9.30;1.63;;;18.30;69.40;;;;;;5073823;28;20712;-65
2023/04/01 10:00:09;;;;;;;8.80;2.10;;;18.30;69.40;;;;;;5074929;28;20646;-65
2023/04/01 10:02:45;;;;;;;8.00;1.80;;;18.30;69.70;;;;;;5068397;28;20215;-65
2023/04/01 10:05:58;;;;;;;3.13;1.67;;;18.20;69.50;;;;;;5073121;28;20262;-64
2023/04/01 10:09:05;;;;;;;7.87;2.00;;;18.20;69.60;;;;;;5072935;28;20227;-67
2023/04/01 10:11:42;;;;;;;7.33;1.60;;;18.20;69.00;;;;;;5041492;28;20280;-65
2023/04/01 10:14:41;;;;;;;7.07;1.93;;;18.20;69.40;;;;;;5073158;28;20219;-65
2023/04/01 10:17:38;;;;;;;10.53;2.00;;;18.20;69.50;;;;;;5060571;28;20194;-65
2023/04/01 10:20:30;;;;;;;8.53;2.00;;;18.20;69.50;;;;;;5062857;28;20171;-65
2023/04/01 10:23:27;;;;;;;9.53;2.10;;;18.10;69.50;;;;;;5075594;28;20171;-67
2023/04/01 10:26:00;;;;;;;9.07;2.10;;;18.00;69.80;;;;;;5085070;28;20204;-66
2023/04/01 10:28:49;;;;;;;5.57;1.67;;;18.00;69.30;;;;;;5075675;28;20621;-65
2023/04/01 10:31:31;;;;;;;5.13;2.07;;;18.00;69.40;;;;;;5075534;28;20259;-65
2023/04/01 10:34:13;;;;;;;7.20;1.80;;;17.90;69.80;;;;;;5079682;28;20210;-65
2023/04/01 10:37:12;;;;;;;7.83;2.40;;;17.90;69.80;;;;;;5072419;28;20183;-64
2023/04/01 10:40:13;;;;;;;7.83;1.90;;;17.80;70.50;;;;;;5071378;28;20210;-67
2023/04/01 10:43:03;;;;;;;8.37;1.97;;;17.80;70.50;;;;;;5075347;28;20235;-67
2023/04/01 10:46:11;;;;;;;8.93;1.70;;;17.70;70.50;;;;;;5077413;28;20605;-65
2023/04/01 10:49:08;;;;;;;7.13;2.50;;;17.60;71.00;;;;;;5082102;28;20265;-66
2023/04/01 10:52:06;;;;;;;9.73;2.50;;;17.50;71.50;;;;;;5078572;28;20185;-64
2023/04/01 10:54:39;;;;;;;9.57;2.10;;;17.40;71.60;;;;;;5072301;28;20225;-64
2023/04/01 10:57:21;;;;;;;8.00;2.50;;;17.40;71.90;;;;;;5073169;28;20179;-65
2023/04/01 11:00:23;;;;;;;8.73;2.10;;;17.30;72.20;;;;;;5066757;28;20191;-65
2023/04/01 11:03:15;;;;;;;7.80;2.60;;;17.30;72.30;;;;;;5073393;28;20193;-65
2023/04/01 11:06:16;;;;;;;8.00;2.53;;;17.30;72.70;;;;;;5067922;28;20531;-68
2023/04/01 11:09:21;;;;;;;3.77;1.77;;;17.20;71.90;;;;;;5070308;28;20586;-65
2023/04/01 11:12:06;;;;;;;8.27;2.17;;;17.20;72.10;;;;;;5054511;28;20188;-65
2023/04/01 11:14:55;;;;;;;7.17;2.10;;;17.20;72.20;;;;;;5066364;28;20217;-64
2023/04/01 11:17:50;;;;;;;5.47;1.90;;;17.20;72.20;;;;;;5071278;28;20703;-67
2023/04/01 11:20:44;;;;;;;8.70;2.53;;;17.10;72.20;;;;;;5057846;28;20180;-65
2023/04/01 11:23:35;;;;;;;3.73;1.47;;;17.10;72.10;;;;;;5073609;28;20183;-66
2023/04/01 11:26:26;;;;;;;7.07;2.00;;;17.20;71.70;;;;;;5066915;28;20191;-66
2023/04/01 11:29:16;;;;;;;8.77;2.10;;;17.30;71.30;;;;;;5031637;28;21923;-64
2023/04/01 11:32:18;;;;;;;3.00;1.60;;;17.40;70.80;;;;;;5069379;28;20191;-67
2023/04/01 11:35:05;;;;;;;4.83;1.67;;;17.30;70.40;;;;;;5072483;28;20245;-69
2023/04/01 11:37:58;;;;;;;5.80;1.60;;;17.30;70.10;;;;;;5073619;28;20266;-67
2023/04/01 11:40:37;;;;;;;6.97;1.83;;;17.40;70.30;;;;;;5072002;28;20249;-67
2023/04/01 11:43:24;;;;;;;5.87;1.67;;;17.40;69.80;;;;;;5082092;28;20558;-68
2023/04/01 11:46:10;;;;;;;7.33;1.87;;;17.40;69.90;;;;;;5081268;28;20183;-68
2023/04/01 11:48:46;;;;;;;3.33;1.53;;;17.30;69.90;;;;;;5073541;28;20524;-65
2023/04/01 11:51:43;;;;;;;4.63;1.53;;;17.20;70.10;;;;;;5073642;28;20189;-68
2023/04/01 11:54:25;;;;;;;5.20;1.67;;;17.10;70.80;;;;;;5083519;28;20210;-67
2023/04/01 11:57:27;;;;;;;7.23;1.90;;;17.00;70.70;;;;;;5073123;28;20179;-66
2023/04/01 12:00:03;;;;;;;3.70;1.43;;;16.90;71.00;;;;;;5060302;28;20543;-65
2023/04/01 12:02:48;;;;;;;7.27;1.80;;;16.90;70.90;;;;;;5066954;28;20181;-66
2023/04/01 12:05:33;;;;;;;5.33;1.80;;;16.90;71.20;;;;;;5076315;28;20179;-65
2023/04/01 12:08:06;;;;;;;5.10;1.70;;;16.90;71.20;;;;;;5073421;28;20223;-67
2023/04/01 12:10:42;;;;;;;6.07;2.07;;;17.00;71.10;;;;;;5073549;28;20236;-66
2023/04/01 12:13:25;;;;;;;6.70;1.60;;;17.00;70.60;;;;;;5063795;28;20215;-65
2023/04/01 12:16:20;;;;;;;2.87;1.40;;;17.10;70.70;;;;;;5073895;28;20266;-66
2023/04/01 12:19:25;;;;;;;4.07;1.77;;;17.10;70.60;;;;;;5072310;28;20175;-65
2023/04/01 12:22:14;;;;;;;4.17;1.93;;;17.10;70.30;;;;;;5060566;28;20271;-68
2023/04/01 12:24:44;;;;;;;4.10;1.50;;;17.10;70.20;;;;;;5075568;28;20183;-65
2023/04/01 12:27:21;;;;;;;5.27;1.60;;;17.10;70.50;;;;;;5073533;28;20183;-64
2023/04/01 12:30:06;;;;;;;4.70;1.50;;;17.10;70.70;;;;;;5072317;28;20174;-66
2023/04/01 12:33:00;;;;;;;6.80;1.77;;;17.10;70.90;;;;;;5075212;28;20185;-66
2023/04/01 12:35:27;;;;;;;3.83;1.73;;;17.00;71.10;;;;;;5094105;28;20248;-64
2023/04/01 12:38:13;;;;;;;5.70;1.93;;;16.90;71.70;;;;;;5060401;28;20179;-64
2023/04/01 12:41:13;;;;;;;2.83;1.40;;;16.80;72.00;;;;;;5072406;28;20187;-64
2023/04/01 12:44:25;;;;;;;7.43;2.10;;;16.80;72.40;;;;;;5073742;28;20242;-64
2023/04/01 12:47:05;;;;;;;12.53;2.53;;;16.70;72.80;;;;;;5071640;28;20179;-65
2023/04/01 12:49:52;;;;;;;8.83;2.50;;;16.70;73.30;;;;;;5073038;28;20186;-65
2023/04/01 12:52:39;;;;;;;7.07;1.90;;;16.70;73.20;;;;;;5065663;28;20209;-65
2023/04/01 12:55:26;;;;;;;7.33;1.87;;;16.70;73.40;;;;;;5060944;28;20194;-65
2023/04/01 12:58:08;;;;;;;8.93;2.40;;;16.80;73.10;;;;;;5070004;28;20187;-65
2023/04/01 13:01:02;;;;;;;6.13;2.10;;;16.80;73.30;;;;;;5073438;28;20232;-64
2023/04/01 13:03:33;;;;;;;7.00;1.93;;;16.80;73.00;;;;;;5067316;28;20221;-70
2023/04/01 13:06:03;;;;;;;4.97;2.23;;;16.70;73.10;;;;;;5071239;28;20229;-67
2023/04/01 13:09:07;;;;;;;7.30;1.80;;;16.80;73.30;;;;;;5072119;28;20231;-69
2023/04/01 13:11:41;;;;;;;4.50;2.00;;;16.70;73.40;;;;;;5071470;28;20574;-64
2023/04/01 13:14:40;;;;;;;6.00;1.77;;;16.80;73.60;;;;;;5070391;28;20242;-65
2023/04/01 13:17:27;;;;;;;4.67;1.73;;;16.80;73.60;;;;;;5068467;28;20285;-65
2023/04/01 13:20:37;;;;;;;3.73;1.93;;;16.80;73.80;;;;;;5067659;28;20203;-65
2023/04/01 13:23:42;;;;;;;5.80;1.83;;;16.80;73.90;;;;;;5069471;28;20221;-65
2023/04/01 13:26:31;;;;;;;5.87;1.80;;;16.90;74.10;;;;;;5051431;28;20306;-66
2023/04/01 13:29:01;;;;;;;4.90;1.70;;;16.80;74.70;;;;;;5074538;28;20185;-66
2023/04/01 13:31:28;;;;;;;6.90;1.80;;;16.80;75.10;;;;;;5073292;28;20175;-64
2023/04/01 13:34:25;;;;;;;4.23;1.73;;;16.80;75.50;;;;;;5072920;28;20242;-67
2023/04/01 13:36:59;;;;;;;6.67;1.70;;;16.80;75.70;;;;;;5060869;28;20273;-65
2023/04/01 13:39:43;;;;;;;5.73;1.70;;;16.80;76.10;;;;;;5069743;28;20183;-65
2023/04/01 13:42:24;;;;;;;4.10;2.37;;;16.80;76.60;;;;;;5070494;28;20231;-66
2023/04/01 13:45:15;;;;;;;5.63;1.87;;;16.70;77.80;;;;;;5072324;28;20206;-65
2023/04/01 13:48:01;;;;;;;8.90;2.10;;;16.80;80.80;;;;;;5072141;28;20527;-66